createdAt,value
2019-03-18T00:04:06.900Z,99.9
2019-03-18T00:09:09.442Z,99.9
2019-03-18T00:14:11.897Z,99.9
2019-03-18T00:19:14.270Z,99.9
2019-03-18T00:24:17.036Z,99.9
2019-03-18T00:29:19.193Z,99.9
2019-03-18T00:34:21.695Z,99.9
2019-03-18T00:39:24.254Z,99.9
2019-03-18T00:44:26.603Z,99.9
2019-03-18T00:49:29.076Z,99.9
2019-03-18T00:54:31.850Z,99.9
2019-03-18T00:59:33.973Z,99.9
2019-03-18T01:04:36.449Z,99.9
2019-03-18T01:09:39.013Z,99.9
2019-03-18T01:14:41.410Z,99.9
2019-03-18T01:19:43.804Z,99.9
2019-03-18T01:24:46.699Z,99.9
2019-03-18T01:29:48.764Z,99.9
2019-03-18T01:34:51.265Z,99.9
2019-03-18T01:39:53.768Z,99.9
2019-03-18T01:44:56.134Z,99.9
2019-03-18T01:49:58.628Z,99.9
2019-03-18T01:55:01.060Z,99.9
2019-03-18T02:00:03.923Z,99.9
2019-03-18T02:05:06.028Z,99.9
2019-03-18T02:10:08.531Z,99.9
2019-03-18T02:15:10.932Z,99.9
2019-03-18T02:20:13.381Z,99.9
2019-03-18T02:25:16.157Z,99.9
2019-03-18T02:30:18.391Z,99.9
2019-03-18T02:35:21.024Z,99.9
2019-03-18T02:40:23.335Z,99.9
2019-03-18T02:45:25.696Z,99.9
2019-03-18T02:50:28.161Z,99.9
2019-03-18T02:55:31.005Z,94.8
2019-03-18T03:00:33.251Z,92.7
2019-03-18T03:05:35.580Z,92.2
2019-03-18T03:10:38.210Z,88.8
2019-03-18T03:15:40.576Z,84.8
2019-03-18T03:20:43.027Z,82.6
2019-03-18T03:25:45.415Z,83.9
2019-03-18T03:30:47.975Z,81.9
2019-03-18T03:35:50.360Z,83
2019-03-18T03:40:52.891Z,84.4
2019-03-18T03:45:55.286Z,82.4
2019-03-18T03:50:57.757Z,83.2
2019-03-18T03:56:00.602Z,76
2019-03-18T04:01:02.735Z,69.6
2019-03-18T04:06:05.173Z,67.4
2019-03-18T04:11:08.581Z,60.4
2019-03-18T04:16:10.090Z,62.6
2019-03-18T04:21:12.524Z,61.2
2019-03-18T04:26:15.303Z,57.5
2019-03-18T04:31:17.595Z,53.7
2019-03-18T04:36:19.912Z,50.4
2019-03-18T04:41:22.465Z,49.6
2019-03-18T04:46:24.858Z,48.5
2019-03-18T04:51:27.363Z,47
2019-03-18T04:56:30.216Z,48
2019-03-18T05:01:32.269Z,48.3
2019-03-18T05:11:37.260Z,48.5
2019-03-18T05:16:39.636Z,52.3
2019-03-18T05:21:42.130Z,51.9
2019-03-18T05:26:44.883Z,52.8
2019-03-18T05:31:47.087Z,54.3
2019-03-18T05:36:50.562Z,57.5
2019-03-18T05:46:54.421Z,61.7
2019-03-18T05:51:56.887Z,61.7
2019-03-18T05:56:59.720Z,60
2019-03-18T06:02:01.877Z,61.2
2019-03-18T06:07:04.281Z,60.9
2019-03-18T06:12:06.780Z,55.9
2019-03-18T06:17:09.207Z,53.8
2019-03-18T06:22:11.763Z,49.2
2019-03-18T06:27:14.151Z,44.2
2019-03-18T06:32:16.655Z,40.4
2019-03-18T06:37:19.109Z,39.1
2019-03-18T06:42:21.542Z,38.4
2019-03-18T06:47:24.005Z,37.4
2019-03-18T06:52:26.468Z,39
2019-03-18T06:57:29.254Z,28.9
2019-03-18T07:02:31.417Z,6.9
2019-03-18T07:07:33.874Z,1
2019-03-18T07:12:36.299Z,1
2019-03-18T07:17:38.757Z,1
2019-03-18T07:22:41.281Z,1
2019-03-18T07:27:43.679Z,1
2019-03-18T07:32:46.258Z,1
2019-03-18T07:37:48.674Z,1
2019-03-18T07:42:51.111Z,1
2019-03-18T07:47:53.633Z,1
2019-03-18T07:52:55.972Z,1
2019-03-18T07:57:58.746Z,1
2019-03-18T08:03:03.258Z,1
2019-03-18T08:08:03.390Z,1
2019-03-18T08:13:05.806Z,1
2019-03-18T08:18:08.333Z,1
2019-03-18T08:23:10.713Z,1
2019-03-18T08:28:13.175Z,1
2019-03-18T08:33:15.668Z,1
2019-03-18T08:38:18.080Z,1
2019-03-18T08:43:20.529Z,1
2019-03-18T08:48:23.177Z,1
2019-03-18T08:53:25.462Z,1
2019-03-18T08:58:27.915Z,1
2019-03-18T09:03:30.393Z,1
2019-03-18T09:08:32.839Z,1
2019-03-18T09:13:35.309Z,1
2019-03-18T09:18:37.874Z,1
2019-03-18T09:23:40.268Z,1
2019-03-18T09:28:42.937Z,1
2019-03-18T09:33:45.145Z,1
2019-03-18T09:38:47.574Z,1
2019-03-18T09:43:50.077Z,1
2019-03-18T09:48:52.563Z,1
2019-03-18T09:53:54.983Z,1
2019-03-18T09:58:57.767Z,1
2019-03-18T10:03:59.892Z,1
2019-03-18T10:09:02.350Z,1
2019-03-18T10:14:04.764Z,1
2019-03-18T10:19:07.300Z,1
2019-03-18T10:24:09.679Z,1
2019-03-18T10:29:12.313Z,1
2019-03-18T10:34:14.631Z,1
2019-03-18T10:44:19.534Z,1
2019-03-18T10:49:22.070Z,1
2019-03-18T10:54:30.570Z,1
2019-03-18T10:59:27.021Z,1
2019-03-18T11:04:29.350Z,1
2019-03-18T11:09:31.794Z,1
2019-03-18T11:14:34.264Z,1
2019-03-18T11:19:36.813Z,1
2019-03-18T11:24:39.157Z,1
2019-03-18T11:29:42.069Z,1
2019-03-18T11:34:44.084Z,1
2019-03-18T11:39:46.715Z,1
2019-03-18T11:44:49.011Z,1
2019-03-18T11:49:51.523Z,1
2019-03-18T11:54:54.023Z,1
2019-03-18T11:59:56.436Z,1
2019-03-18T12:04:58.845Z,1
2019-03-18T12:10:01.404Z,1
2019-03-18T12:15:03.917Z,1
2019-03-18T12:20:06.265Z,1
2019-03-18T12:25:08.739Z,1
2019-03-18T12:30:11.481Z,1
2019-03-18T12:35:13.609Z,1
2019-03-18T12:40:16.030Z,1
2019-03-18T12:45:18.690Z,1
2019-03-18T12:50:36.745Z,1
2019-03-18T12:55:23.421Z,1
2019-03-18T13:05:28.320Z,1
2019-03-18T13:20:35.803Z,1
2019-03-18T13:30:40.610Z,1
2019-03-18T13:35:43.335Z,1
2019-03-18T13:40:46.038Z,1
2019-03-18T13:45:54.989Z,1
2019-03-18T13:50:50.567Z,1
2019-03-18T13:55:52.879Z,1
2019-03-18T14:00:55.448Z,1
2019-03-18T14:05:57.800Z,1
2019-03-18T14:11:00.303Z,1
2019-03-18T14:16:02.727Z,1
2019-03-18T14:21:05.162Z,1
2019-03-18T14:26:07.620Z,1
2019-03-18T14:31:10.374Z,1
2019-03-18T14:36:12.564Z,1
2019-03-18T14:41:15.013Z,1
2019-03-18T14:46:17.518Z,1
2019-03-18T14:51:20.249Z,1
2019-03-18T14:56:22.375Z,1
2019-03-18T15:01:24.849Z,1
2019-03-18T15:06:27.279Z,1
2019-03-18T15:11:29.776Z,1
2019-03-18T15:16:32.194Z,1
2019-03-18T15:21:34.743Z,1
2019-03-18T15:26:37.106Z,1
2019-03-18T15:31:39.596Z,1
2019-03-18T15:36:42.156Z,1
2019-03-18T15:41:44.591Z,1
2019-03-18T15:46:47.130Z,1
2019-03-18T15:51:49.470Z,1
2019-03-18T15:56:51.850Z,1
2019-03-18T16:01:54.293Z,1
2019-03-18T16:06:57.061Z,1
2019-03-18T16:17:02.504Z,1
2019-03-18T16:22:04.210Z,1
2019-03-18T16:27:06.600Z,1
2019-03-18T16:32:11.346Z,1
2019-03-18T16:37:11.552Z,1
2019-03-18T16:42:14.003Z,1
2019-03-18T16:47:16.451Z,1
2019-03-18T16:52:18.965Z,1
2019-03-18T16:57:21.340Z,1
2019-03-18T17:02:24.121Z,1
2019-03-18T17:07:26.294Z,1
2019-03-18T17:12:28.769Z,1
2019-03-18T17:17:31.294Z,1
2019-03-18T17:22:33.701Z,1
2019-03-18T17:27:36.098Z,2.4
2019-03-18T17:37:41.085Z,12.1
2019-03-18T17:42:43.533Z,13.6
2019-03-18T17:47:46.020Z,11.7
2019-03-18T17:53:00.773Z,9.2
2019-03-18T17:57:50.901Z,10.2
2019-03-18T18:02:53.353Z,10.4
2019-03-18T18:07:55.914Z,10.9
2019-03-18T18:12:58.283Z,15.2
2019-03-18T18:18:00.743Z,20.3
2019-03-18T18:23:13.530Z,22.4
2019-03-18T18:28:05.714Z,26.8
2019-03-18T18:33:08.304Z,30.8
2019-03-18T18:38:10.678Z,32.5
2019-03-18T18:43:13.075Z,32.6
2019-03-18T18:48:15.627Z,31.7
2019-03-18T18:53:25.922Z,29.4
2019-03-18T18:58:20.487Z,26.8
2019-03-18T19:03:22.925Z,27
2019-03-18T19:08:25.435Z,27.5
2019-03-18T19:13:27.896Z,27.5
2019-03-18T19:18:37.518Z,27.9
2019-03-18T19:23:37.405Z,27
2019-03-18T19:28:35.257Z,27.7
2019-03-18T19:38:40.336Z,24.2
2019-03-18T19:43:42.639Z,23
2019-03-18T19:48:45.200Z,22.1
2019-03-18T19:53:49.252Z,21.2
2019-03-18T19:58:50.042Z,19.3
2019-03-18T20:03:52.493Z,13.6
2019-03-18T20:08:55.287Z,6.1
2019-03-18T20:13:57.466Z,1
2019-03-18T20:18:59.904Z,1
2019-03-18T20:24:04.321Z,1
2019-03-18T20:29:04.828Z,1
2019-03-18T20:34:07.365Z,1
2019-03-18T20:39:09.777Z,1
2019-03-18T20:44:12.310Z,1
2019-03-18T20:49:16.946Z,1
2019-03-18T20:54:17.303Z,1
2019-03-18T20:59:19.693Z,1
2019-03-18T21:04:22.161Z,1
2019-03-18T21:09:24.845Z,1
2019-03-18T21:14:26.979Z,1
2019-03-18T21:19:29.434Z,1
2019-03-18T21:24:31.970Z,1
2019-03-18T21:29:34.350Z,1
2019-03-18T21:34:36.814Z,1
2019-03-18T21:39:39.578Z,1
2019-03-18T21:44:41.737Z,1
2019-03-18T21:49:44.211Z,1
2019-03-18T21:54:46.773Z,9.7
2019-03-18T21:59:49.124Z,17
2019-03-18T22:04:51.667Z,17.8
2019-03-18T22:09:54.356Z,19.5
2019-03-18T22:14:56.576Z,19.5
2019-03-18T22:19:59.019Z,25.9
2019-03-18T22:25:01.681Z,29.8
2019-03-18T22:30:03.903Z,43.1
2019-03-18T22:35:06.369Z,54
2019-03-18T22:40:08.867Z,59.7
2019-03-18T22:45:11.474Z,68.4
2019-03-18T22:50:13.774Z,68.8
2019-03-18T22:55:16.346Z,71.9
2019-03-18T23:00:18.743Z,72.3
2019-03-18T23:05:21.228Z,88.5
2019-03-18T23:10:23.624Z,90.7
2019-03-18T23:15:26.133Z,89.5
2019-03-18T23:20:28.542Z,85
2019-03-18T23:25:31.168Z,75.9
2019-03-18T23:30:33.500Z,49.4
2019-03-18T23:35:35.938Z,33.3
2019-03-18T23:40:38.428Z,26.9
2019-03-18T23:45:40.933Z,21
2019-03-18T23:50:43.384Z,19.7
2019-03-18T23:55:45.893Z,15.6
